createdAt,value
2023-05-08T00:03:45.510Z,13.88
2023-05-08T00:08:39.583Z,13.63
2023-05-08T00:13:32.285Z,14.63
2023-05-08T00:18:25.484Z,14.98
2023-05-08T00:23:19.506Z,13.50
2023-05-08T00:28:13.626Z,14.98
2023-05-08T00:33:05.953Z,13.25
2023-05-08T00:37:59.695Z,14.05
2023-05-08T00:42:53.734Z,12.80
2023-05-08T00:47:46.456Z,14.77
2023-05-08T00:52:40.111Z,13.50
2023-05-08T00:57:36.311Z,12.05
2023-05-08T01:02:31.891Z,13.07
2023-05-08T01:07:25.867Z,11.75
2023-05-08T01:12:40.750Z,12.13
2023-05-08T01:17:46.337Z,11.70
2023-05-08T01:23:04.111Z,11.10
2023-05-08T01:28:32.499Z,11.60
2023-05-08T01:33:37.407Z,13.40
2023-05-08T01:38:44.560Z,12.50
2023-05-08T01:44:01.861Z,10.60
2023-05-08T01:49:04.162Z,10.95
2023-05-08T01:54:01.395Z,12.57
2023-05-08T01:58:55.087Z,12.50
2023-05-08T02:03:48.507Z,12.90
2023-05-08T02:08:42.343Z,13.95
2023-05-08T02:13:36.708Z,14.30
2023-05-08T02:18:31.495Z,14.68
2023-05-08T02:23:27.175Z,14.82
2023-05-08T02:28:21.417Z,14.75
2023-05-08T02:33:15.676Z,14.27
2023-05-08T02:38:11.136Z,15.02
2023-05-08T02:43:05.553Z,16.23
2023-05-08T02:48:21.582Z,15.57
2023-05-08T02:53:20.869Z,15.25
2023-05-08T02:58:25.408Z,14.68
2023-05-08T03:03:25.378Z,13.80
2023-05-08T03:08:22.212Z,12.10
2023-05-08T03:13:15.638Z,10.77
2023-05-08T03:18:31.139Z,8.18
2023-05-08T03:23:25.816Z,6.90
2023-05-08T03:28:22.976Z,6.45
2023-05-08T03:33:18.473Z,6.07
2023-05-08T03:38:11.494Z,5.88
2023-05-08T03:43:08.861Z,5.30
2023-05-08T03:48:03.974Z,4.72
2023-05-08T03:52:58.965Z,5.70
2023-05-08T03:57:57.512Z,6.65
2023-05-08T04:07:56.305Z,6.20
2023-05-08T04:12:57.787Z,6.38
2023-05-08T04:17:55.782Z,5.90
2023-05-08T04:22:51.428Z,5.85
2023-05-08T04:27:46.352Z,8.05
2023-05-08T04:32:41.310Z,8.88
2023-05-08T04:37:37.704Z,9.18
2023-05-08T04:42:30.877Z,9.48
2023-05-08T04:47:26.290Z,12.27
2023-05-08T04:52:20.630Z,12.85
2023-05-08T04:57:15.143Z,12.05
2023-05-08T05:02:09.567Z,12.43
2023-05-08T05:07:04.519Z,7.18
2023-05-08T05:11:58.439Z,8.20
2023-05-08T05:16:52.199Z,8.40
2023-05-08T05:21:45.156Z,9.98
2023-05-08T05:26:38.664Z,8.45
2023-05-08T05:31:32.130Z,10.13
2023-05-08T05:36:25.699Z,9.88
2023-05-08T05:41:19.422Z,11.70
2023-05-08T05:46:12.957Z,12.13
2023-05-08T05:51:06.370Z,12.52
2023-05-08T05:56:00.713Z,11.18
2023-05-08T06:00:54.149Z,11.40
2023-05-08T06:05:48.599Z,12.88
2023-05-08T06:10:41.976Z,13.32
2023-05-08T06:15:37.529Z,12.90
2023-05-08T06:20:31.461Z,12.30
2023-05-08T06:25:24.713Z,11.50
2023-05-08T06:30:18.814Z,5.28
2023-05-08T06:35:12.920Z,6.97
2023-05-08T06:40:12.069Z,5.57
2023-05-08T06:45:09.956Z,3.83
2023-05-08T06:50:04.288Z,3.50
2023-05-08T06:54:57.913Z,3.20
2023-05-08T06:59:50.926Z,2.90
2023-05-08T07:04:45.490Z,2.97
2023-05-08T07:09:39.098Z,4.00
2023-05-08T07:14:32.269Z,3.60
2023-05-08T07:19:25.685Z,3.65
2023-05-08T07:24:19.138Z,3.40
2023-05-08T07:29:13.478Z,4.80
2023-05-08T07:34:07.357Z,4.72
2023-05-08T07:39:00.799Z,5.22
2023-05-08T07:43:54.065Z,6.35
2023-05-08T07:48:47.791Z,6.30
2023-05-08T07:53:42.005Z,7.03
2023-05-08T07:58:35.555Z,7.05
2023-05-08T08:03:29.503Z,7.68
2023-05-08T08:08:22.785Z,7.47
2023-05-08T08:13:15.555Z,6.25
2023-05-08T08:18:09.104Z,6.18
2023-05-08T08:23:03.257Z,7.15
2023-05-08T08:27:56.826Z,6.13
2023-05-08T08:32:50.041Z,6.22
2023-05-08T08:37:43.860Z,5.60
2023-05-08T08:42:37.489Z,4.35
2023-05-08T08:47:32.854Z,4.10
2023-05-08T08:52:32.323Z,3.65
2023-05-08T08:57:28.805Z,3.17
2023-05-08T09:02:24.009Z,3.40
2023-05-08T09:07:19.027Z,3.20
2023-05-08T09:12:14.974Z,3.25
2023-05-08T09:17:08.663Z,2.63
2023-05-08T09:22:02.308Z,2.92
2023-05-08T09:26:55.472Z,3.13
2023-05-08T09:31:50.198Z,3.00
2023-05-08T09:36:43.893Z,3.45
2023-05-08T09:41:37.912Z,3.90
2023-05-08T09:46:32.245Z,3.15
2023-05-08T09:51:27.275Z,3.67
2023-05-08T09:56:37.079Z,4.40
2023-05-08T10:01:32.351Z,4.82
2023-05-08T10:06:25.714Z,4.13
2023-05-08T10:11:20.327Z,4.40
2023-05-08T10:16:18.128Z,4.75
2023-05-08T10:21:12.739Z,4.00
2023-05-08T10:26:13.291Z,3.97
2023-05-08T10:31:09.247Z,4.28
2023-05-08T10:36:02.966Z,4.07
2023-05-08T10:40:59.339Z,3.72
2023-05-08T10:45:55.037Z,4.10
2023-05-08T10:51:12.521Z,4.07
2023-05-08T10:56:06.994Z,3.83
2023-05-08T11:01:25.528Z,4.15
2023-05-08T11:06:19.035Z,3.30
2023-05-08T11:11:34.250Z,3.30
2023-05-08T11:17:01.746Z,3.22
2023-05-08T11:22:55.451Z,2.85
2023-05-08T11:27:51.649Z,2.40
2023-05-08T11:33:15.060Z,2.60
2023-05-08T11:38:24.447Z,1.92
2023-05-08T11:43:44.958Z,3.15
2023-05-08T11:48:38.116Z,2.70
2023-05-08T11:53:51.043Z,3.17
2023-05-08T11:58:44.598Z,2.67
2023-05-08T12:03:37.924Z,3.20
2023-05-08T12:08:30.897Z,3.20
2023-05-08T12:13:26.075Z,2.67
2023-05-08T12:18:18.458Z,3.05
2023-05-08T12:23:11.425Z,2.92
2023-05-08T12:28:04.864Z,2.20
2023-05-08T12:32:59.658Z,2.53
2023-05-08T12:37:53.363Z,1.83
2023-05-08T12:42:50.237Z,1.90
2023-05-08T12:47:49.418Z,2.05
2023-05-08T12:52:43.091Z,1.73
2023-05-08T12:57:38.065Z,2.00
2023-05-08T13:02:31.801Z,2.78
2023-05-08T13:07:25.050Z,1.77
2023-05-08T13:12:19.133Z,2.53
2023-05-08T13:17:19.057Z,2.83
2023-05-08T13:22:13.105Z,2.13
2023-05-08T13:27:06.318Z,2.35
2023-05-08T13:31:59.519Z,2.15
2023-05-08T13:36:53.058Z,2.08
2023-05-08T13:41:47.409Z,2.20
2023-05-08T13:46:40.473Z,2.00
2023-05-08T13:51:33.173Z,3.17
2023-05-08T13:56:26.280Z,3.22
2023-05-08T14:01:26.325Z,3.35
2023-05-08T14:06:22.640Z,3.08
2023-05-08T14:11:16.208Z,2.95
2023-05-08T14:16:11.043Z,2.88
2023-05-08T14:21:04.527Z,2.90
2023-05-08T14:25:59.036Z,3.13
2023-05-08T14:30:52.639Z,3.03
2023-05-08T14:35:48.717Z,2.92
2023-05-08T14:40:41.458Z,3.13
2023-05-08T14:45:34.814Z,2.90
2023-05-08T14:50:28.377Z,3.95
2023-05-08T14:55:22.075Z,3.38
2023-05-08T15:00:17.705Z,3.63
2023-05-08T15:10:24.850Z,3.80
2023-05-08T15:15:18.031Z,3.72
2023-05-08T15:20:12.146Z,3.90
2023-05-08T15:25:07.006Z,3.63
2023-05-08T15:30:00.679Z,3.47
2023-05-08T15:34:54.839Z,4.10
2023-05-08T15:39:47.876Z,3.90
2023-05-08T15:49:54.693Z,4.55
2023-05-08T15:54:48.852Z,4.68
2023-05-08T15:59:42.154Z,4.47
2023-05-08T16:04:36.009Z,4.60
2023-05-08T16:09:30.399Z,4.57
2023-05-08T16:14:23.751Z,4.75
2023-05-08T16:19:17.098Z,4.55
2023-05-08T16:24:10.252Z,4.80
2023-05-08T16:29:03.364Z,4.60
2023-05-08T16:33:57.057Z,5.13
2023-05-08T16:38:51.067Z,4.25
2023-05-08T16:43:44.735Z,4.30
2023-05-08T16:48:37.909Z,4.70
2023-05-08T16:53:33.007Z,4.32
2023-05-08T16:58:27.637Z,4.53
2023-05-08T17:03:20.671Z,4.25
2023-05-08T17:08:14.455Z,4.72
2023-05-08T17:13:07.705Z,4.30
2023-05-08T17:18:01.354Z,4.43
2023-05-08T17:22:56.015Z,4.25
2023-05-08T17:27:49.389Z,4.30
2023-05-08T17:32:43.046Z,4.38
2023-05-08T17:37:36.733Z,3.63
2023-05-08T17:42:30.447Z,4.28
2023-05-08T17:47:24.424Z,4.25
2023-05-08T17:52:17.977Z,4.07
2023-05-08T17:57:11.794Z,4.43
2023-05-08T18:02:05.448Z,4.65
2023-05-08T18:06:57.749Z,3.92
2023-05-08T18:11:50.729Z,4.68
2023-05-08T18:16:44.437Z,4.35
2023-05-08T18:21:37.808Z,5.07
2023-05-08T18:26:31.616Z,4.93
2023-05-08T18:31:25.281Z,5.13
2023-05-08T18:36:20.117Z,5.38
2023-05-08T18:41:13.949Z,5.00
2023-05-08T18:46:13.011Z,5.50
2023-05-08T18:55:59.328Z,5.93
2023-05-08T19:00:56.863Z,5.35
2023-05-08T19:05:51.558Z,5.30
2023-05-08T19:10:44.805Z,5.22
2023-05-08T19:15:38.582Z,5.30
2023-05-08T19:20:31.607Z,5.28
2023-05-08T19:25:25.637Z,4.55
2023-05-08T19:30:19.737Z,4.72
2023-05-08T19:35:14.560Z,5.22
2023-05-08T19:40:08.824Z,5.00
2023-05-08T19:45:02.482Z,5.15
2023-05-08T19:49:56.122Z,5.47
2023-05-08T19:54:50.520Z,7.10
2023-05-08T19:59:44.946Z,5.68
2023-05-08T20:04:54.515Z,6.47
2023-05-08T20:09:52.363Z,6.15
2023-05-08T20:14:46.107Z,6.28
2023-05-08T20:19:41.026Z,6.45
2023-05-08T20:24:34.421Z,5.72
2023-05-08T20:29:29.524Z,6.82
2023-05-08T20:34:22.194Z,6.72
2023-05-08T20:39:15.338Z,6.25
2023-05-08T20:44:09.377Z,6.60
2023-05-08T20:49:04.518Z,6.43
2023-05-08T20:53:57.474Z,6.40
2023-05-08T20:58:51.736Z,5.97
2023-05-08T21:03:46.062Z,6.95
2023-05-08T21:08:40.250Z,7.03
2023-05-08T21:13:33.476Z,7.00
2023-05-08T21:18:26.832Z,7.55
2023-05-08T21:23:21.039Z,6.82
2023-05-08T21:28:15.467Z,7.15
2023-05-08T21:33:10.689Z,6.80
2023-05-08T21:38:04.827Z,7.72
2023-05-08T21:42:58.338Z,7.05
2023-05-08T21:47:51.944Z,7.30
2023-05-08T21:52:44.752Z,7.63
2023-05-08T21:57:38.926Z,7.45
2023-05-08T22:02:33.094Z,7.90
2023-05-08T22:07:26.653Z,7.70
2023-05-08T22:12:20.829Z,6.43
2023-05-08T22:17:13.977Z,7.95
2023-05-08T22:22:07.755Z,6.93
2023-05-08T22:27:01.435Z,7.57
2023-05-08T22:31:55.705Z,8.35
2023-05-08T22:36:47.746Z,7.68
2023-05-08T22:41:41.580Z,8.13
2023-05-08T22:46:35.754Z,8.95
2023-05-08T22:51:30.763Z,8.77
2023-05-08T22:56:24.778Z,9.23
2023-05-08T23:01:18.936Z,10.55
2023-05-08T23:06:13.473Z,9.20
2023-05-08T23:11:05.795Z,10.73
2023-05-08T23:15:58.871Z,10.90
2023-05-08T23:20:52.379Z,13.80
2023-05-08T23:25:46.120Z,14.73
2023-05-08T23:30:38.753Z,15.95
2023-05-08T23:35:32.335Z,17.08
2023-05-08T23:40:25.359Z,14.75
2023-05-08T23:45:18.216Z,16.77
2023-05-08T23:50:13.578Z,16.70
2023-05-08T23:55:08.313Z,15.23
